Time;durP1;ratioP1;P1;durP2;ratioP2;P2;SDS_P1;SDS_P2;PMS_P1;PMS_P2;Temp;Humidity;BMP_temperature;BMP_pressure;BME280_temperature;BME280_humidity;BME280_pressure;Samples;Min_cycle;Max_cycle;Signal;HPM_P1;HPM_P2
2022/06/12 00:01:04;;;;;;;;;14.00;14.00;;;;;;;;4981158;28;8775;-66
2022/06/12 00:03:33;;;;;;;;;16.40;13.80;;;;;;;;4963509;28;9565;-68
2022/06/12 00:06:00;;;;;;;;;19.00;13.60;;;;;;;;4981357;28;9401;-63
2022/06/12 00:08:27;;;;;;;;;19.60;16.60;;;;;;;;4981008;28;8906;-61
2022/06/12 00:10:55;;;;;;;;;17.00;14.00;;;;;;;;4981471;28;8775;-67
2022/06/12 00:13:23;;;;;;;;;21.80;14.20;;;;;;;;4964148;28;8894;-70
2022/06/12 00:15:49;;;;;;;;;14.80;11.20;;;;;;;;4980304;28;8841;-59
2022/06/12 00:18:16;;;;;;;;;15.60;13.60;;;;;;;;4981245;28;8818;-61
2022/06/12 00:20:43;;;;;;;;;16.60;14.20;;;;;;;;4981011;28;8776;-70
2022/06/12 00:23:10;;;;;;;;;18.00;16.40;;;;;;;;4980984;28;8782;-67
2022/06/12 00:25:37;;;;;;;;;14.20;11.60;;;;;;;;4980730;28;8784;-55
2022/06/12 00:28:05;;;;;;;;;20.60;13.40;;;;;;;;4981748;28;8736;-61
2022/06/12 00:30:31;;;;;;;;;21.00;14.60;;;;;;;;4980364;28;8906;-69
2022/06/12 00:32:58;;;;;;;;;16.60;15.20;;;;;;;;4979752;28;8842;-69
2022/06/12 00:35:26;;;;;;;;;17.80;14.20;;;;;;;;4979344;28;8808;-60
2022/06/12 00:37:53;;;;;;;;;17.60;14.60;;;;;;;;4980975;28;8858;-55
2022/06/12 00:40:20;;;;;;;;;17.80;17.20;;;;;;;;4981439;28;8735;-61
2022/06/12 00:42:54;;;;;;;;;15.60;14.40;;;;;;;;4980569;28;8823;-70
2022/06/12 00:45:36;;;;;;;;;13.60;11.00;;;;;;;;4980361;28;8909;-65
2022/06/12 00:48:06;;;;;;;;;20.40;19.20;;;;;;;;4980579;28;8814;-66
2022/06/12 00:50:33;;;;;;;;;22.75;18.50;;;;;;;;4980379;28;8791;-67
2022/06/12 00:53:02;;;;;;;;;24.50;21.00;;;;;;;;4963107;28;8835;-64
2022/06/12 00:55:39;;;;;;;;;24.20;21.00;;;;;;;;4961601;28;8835;-71
2022/06/12 00:58:10;;;;;;;;;25.80;22.80;;;;;;;;4964139;28;8854;-62
2022/06/12 01:00:37;;;;;;;;;26.20;22.40;;;;;;;;4962900;28;8796;-53
2022/06/12 01:03:03;;;;;;;;;27.80;21.80;;;;;;;;4979253;28;8842;-63
2022/06/12 01:08:15;;;;;;;;;17.80;14.60;;;;;;;;4980270;28;8759;-65
2022/06/12 01:10:42;;;;;;;;;15.80;13.60;;;;;;;;4979377;28;8906;-65
2022/06/12 01:13:14;;;;;;;;;15.60;13.00;;;;;;;;4980330;28;8806;-68
2022/06/12 01:15:42;;;;;;;;;13.20;12.00;;;;;;;;4979903;28;8831;-67
2022/06/12 01:18:09;;;;;;;;;17.40;15.20;;;;;;;;4980483;28;8834;-71
2022/06/12 01:20:38;;;;;;;;;13.60;11.00;;;;;;;;4963186;28;8885;-68
2022/06/12 01:23:23;;;;;;;;;14.60;12.60;;;;;;;;4980031;28;8791;-66
2022/06/12 01:25:53;;;;;;;;;12.20;10.80;;;;;;;;4980222;28;8874;-68
2022/06/12 01:28:25;;;;;;;;;14.60;13.40;;;;;;;;4980785;28;8843;-63
2022/06/12 01:30:58;;;;;;;;;14.60;12.80;;;;;;;;4980597;28;8776;-68
2022/06/12 01:33:43;;;;;;;;;15.00;15.00;;;;;;;;4980216;28;8767;-65
2022/06/12 01:36:12;;;;;;;;;17.20;15.80;;;;;;;;4979655;28;8826;-66
2022/06/12 01:38:44;;;;;;;;;17.00;14.40;;;;;;;;4979675;28;8877;-72
2022/06/12 01:41:11;;;;;;;;;21.40;16.00;;;;;;;;4978689;28;8783;-68
2022/06/12 01:43:45;;;;;;;;;17.00;17.00;;;;;;;;4979422;28;8812;-61
2022/06/12 01:46:21;;;;;;;;;18.00;13.00;;;;;;;;4980284;28;8799;-68
2022/06/12 01:48:59;;;;;;;;;14.40;12.60;;;;;;;;4979922;28;8779;-68
2022/06/12 01:51:26;;;;;;;;;14.60;13.60;;;;;;;;4979374;28;8788;-70
2022/06/12 01:53:53;;;;;;;;;13.40;11.80;;;;;;;;4979269;28;8843;-67
2022/06/12 01:56:25;;;;;;;;;11.20;9.60;;;;;;;;4979279;28;8772;-50
2022/06/12 01:58:56;;;;;;;;;9.80;6.60;;;;;;;;4979358;28;8779;-62
2022/06/12 02:01:29;;;;;;;;;7.40;6.40;;;;;;;;4980338;28;8775;-70
2022/06/12 02:04:02;;;;;;;;;8.00;8.00;;;;;;;;4978681;28;8740;-55
2022/06/12 02:06:39;;;;;;;;;11.40;7.40;;;;;;;;4961322;28;8818;-58
2022/06/12 02:09:16;;;;;;;;;7.20;5.80;;;;;;;;4979267;28;8783;-72
2022/06/12 02:14:32;;;;;;;;;6.60;6.60;;;;;;;;4977671;28;8791;-69
2022/06/12 02:16:59;;;;;;;;;7.20;6.40;;;;;;;;4962235;28;8779;-48
2022/06/12 02:19:34;;;;;;;;;9.00;7.60;;;;;;;;4961783;28;8775;-72
2022/06/12 02:22:08;;;;;;;;;7.40;6.80;;;;;;;;4962684;28;8788;-59
2022/06/12 02:24:43;;;;;;;;;6.80;5.20;;;;;;;;4978848;28;8792;-72
2022/06/12 02:27:11;;;;;;;;;9.60;7.00;;;;;;;;4961794;28;8775;-70
2022/06/12 02:29:41;;;;;;;;;8.20;7.60;;;;;;;;4952530;28;8811;-64
2022/06/12 02:32:17;;;;;;;;;12.20;5.80;;;;;;;;4977873;28;8780;-71
2022/06/12 02:34:52;;;;;;;;;10.00;8.60;;;;;;;;4977765;28;8800;-72
2022/06/12 02:37:24;;;;;;;;;10.80;8.60;;;;;;;;4978085;28;8920;-63
2022/06/12 02:39:56;;;;;;;;;15.20;11.20;;;;;;;;4977381;28;9468;-70
2022/06/12 02:42:24;;;;;;;;;8.80;8.60;;;;;;;;4977053;28;8767;-72
2022/06/12 02:45:08;;;;;;;;;14.20;13.20;;;;;;;;4977976;28;8909;-71
2022/06/12 02:47:35;;;;;;;;;16.80;12.80;;;;;;;;4961388;28;8854;-67
2022/06/12 02:50:02;;;;;;;;;18.80;9.40;;;;;;;;4978302;28;8774;-72
2022/06/12 02:52:29;;;;;;;;;14.00;12.40;;;;;;;;4960830;28;8764;-71
2022/06/12 02:55:04;;;;;;;;;11.80;10.60;;;;;;;;4978850;28;8821;-67
2022/06/12 02:57:54;;;;;;;;;12.40;12.20;;;;;;;;4961022;28;8826;-71
2022/06/12 03:00:26;;;;;;;;;13.20;11.80;;;;;;;;4953139;28;8772;-71
2022/06/12 03:02:57;;;;;;;;;15.60;12.60;;;;;;;;4978195;28;8775;-71
2022/06/12 03:05:28;;;;;;;;;16.00;12.80;;;;;;;;4977296;28;9434;-67
2022/06/12 03:07:59;;;;;;;;;14.40;13.00;;;;;;;;4978590;28;9453;-69
2022/06/12 03:10:30;;;;;;;;;15.60;10.00;;;;;;;;4978015;28;9069;-68
2022/06/12 03:12:57;;;;;;;;;15.20;12.80;;;;;;;;4978922;28;8882;-72
2022/06/12 03:15:29;;;;;;;;;10.60;9.80;;;;;;;;4976562;28;8799;-71
2022/06/12 03:17:56;;;;;;;;;11.20;10.40;;;;;;;;4980406;28;8779;-71
2022/06/12 03:20:25;;;;;;;;;12.00;11.20;;;;;;;;4965012;28;8911;-62
2022/06/12 03:22:56;;;;;;;;;15.20;11.40;;;;;;;;4965823;28;8850;-69
2022/06/12 03:25:44;;;;;;;;;12.40;10.20;;;;;;;;4982594;28;8818;-71
2022/06/12 03:28:26;;;;;;;;;16.80;12.60;;;;;;;;4965655;28;8826;-69
2022/06/12 03:30:56;;;;;;;;;13.80;10.00;;;;;;;;4982346;28;8772;-69
2022/06/12 03:33:41;;;;;;;;;13.80;11.60;;;;;;;;4981693;28;8797;-67
2022/06/12 03:36:11;;;;;;;;;17.00;13.80;;;;;;;;4970406;28;8841;-71
2022/06/12 03:38:38;;;;;;;;;15.20;13.00;;;;;;;;4982099;28;8802;-71
2022/06/12 03:41:10;;;;;;;;;17.80;16.00;;;;;;;;4981992;28;8786;-67
2022/06/12 03:43:37;;;;;;;;;18.40;14.00;;;;;;;;4981285;28;8890;-70
2022/06/12 03:46:12;;;;;;;;;15.40;13.00;;;;;;;;4982423;28;8882;-68
2022/06/12 03:48:43;;;;;;;;;17.80;14.40;;;;;;;;4981384;28;8831;-70
2022/06/12 03:51:22;;;;;;;;;19.20;15.80;;;;;;;;4964611;28;8775;-66
2022/06/12 03:53:51;;;;;;;;;16.20;15.20;;;;;;;;4981429;28;8784;-69
2022/06/12 03:59:22;;;;;;;;;17.40;15.60;;;;;;;;4980978;28;8792;-65
2022/06/12 04:01:50;;;;;;;;;19.60;13.80;;;;;;;;4981653;28;8760;-70
2022/06/12 04:04:17;;;;;;;;;17.60;15.00;;;;;;;;4982114;28;8764;-68
2022/06/12 04:06:43;;;;;;;;;22.00;17.40;;;;;;;;4981277;28;8779;-71
2022/06/12 04:09:28;;;;;;;;;18.20;16.00;;;;;;;;4980274;28;8804;-70
2022/06/12 04:12:02;;;;;;;;;17.60;16.40;;;;;;;;4964013;28;8778;-69
2022/06/12 04:14:41;;;;;;;;;13.20;10.40;;;;;;;;4963862;28;8792;-68
2022/06/12 04:17:08;;;;;;;;;16.20;15.00;;;;;;;;4964119;28;8768;-70
2022/06/12 04:19:58;;;;;;;;;17.60;14.40;;;;;;;;4980855;28;8812;-68
2022/06/12 04:22:21;;;;;;;;;19.00;16.60;;;;;;;;4981058;28;8799;-70
2022/06/12 04:24:53;;;;;;;;;11.80;11.80;;;;;;;;4963916;28;8775;-63
2022/06/12 04:27:36;;;;;;;;;18.60;16.60;;;;;;;;4963684;28;8902;-70
2022/06/12 04:30:15;;;;;;;;;18.60;16.00;;;;;;;;4954751;28;9436;-72
2022/06/12 04:32:42;;;;;;;;;18.80;14.60;;;;;;;;4981097;28;8771;-62
2022/06/12 04:35:08;;;;;;;;;17.20;15.40;;;;;;;;4980853;28;8849;-59
2022/06/12 04:37:35;;;;;;;;;18.40;16.00;;;;;;;;4979393;28;8782;-71
2022/06/12 04:40:03;;;;;;;;;18.40;13.60;;;;;;;;4964138;28;8756;-72
2022/06/12 04:42:33;;;;;;;;;17.40;13.00;;;;;;;;4962880;28;8811;-60
2022/06/12 04:45:00;;;;;;;;;14.20;13.40;;;;;;;;4980417;28;8780;-62
2022/06/12 04:47:28;;;;;;;;;15.20;13.60;;;;;;;;4981066;28;8846;-67
2022/06/12 04:49:54;;;;;;;;;14.40;12.80;;;;;;;;4963767;28;8791;-72
2022/06/12 04:52:21;;;;;;;;;13.80;12.80;;;;;;;;4963894;28;8764;-73
2022/06/12 04:54:49;;;;;;;;;19.40;13.20;;;;;;;;4942238;28;8786;-70
2022/06/12 04:57:16;;;;;;;;;17.60;13.40;;;;;;;;4942061;29;8884;-61
2022/06/12 04:59:44;;;;;;;;;12.20;11.00;;;;;;;;4941827;28;8786;-70
2022/06/12 05:02:10;;;;;;;;;11.60;10.60;;;;;;;;4956563;29;8809;-66
2022/06/12 05:04:37;;;;;;;;;12.60;12.00;;;;;;;;4941450;28;9520;-69
2022/06/12 05:07:04;;;;;;;;;8.60;6.60;;;;;;;;4942561;29;8789;-73
2022/06/12 05:09:32;;;;;;;;;11.20;10.40;;;;;;;;4941700;28;8809;-71
2022/06/12 05:11:59;;;;;;;;;13.60;12.00;;;;;;;;4942354;29;8777;-71
2022/06/12 05:14:25;;;;;;;;;10.40;10.00;;;;;;;;4941651;29;8862;-67
2022/06/12 05:16:56;;;;;;;;;15.60;11.00;;;;;;;;4942037;29;8785;-68
2022/06/12 05:19:23;;;;;;;;;13.20;10.20;;;;;;;;4942602;28;9450;-69
2022/06/12 05:21:50;;;;;;;;;14.80;10.40;;;;;;;;4942701;29;8769;-69
2022/06/12 05:24:17;;;;;;;;;12.20;10.80;;;;;;;;4941774;28;8807;-64
2022/06/12 05:26:45;;;;;;;;;11.00;11.00;;;;;;;;4942053;29;9426;-69
2022/06/12 05:29:13;;;;;;;;;13.40;11.20;;;;;;;;4941830;29;9074;-68
2022/06/12 05:31:39;;;;;;;;;12.40;11.40;;;;;;;;4956464;28;8832;-68
2022/06/12 05:34:06;;;;;;;;;10.60;10.60;;;;;;;;4942614;28;8899;-68
2022/06/12 05:36:32;;;;;;;;;12.80;11.00;;;;;;;;4941246;29;8821;-67
2022/06/12 05:38:59;;;;;;;;;9.00;9.00;;;;;;;;4941851;28;8782;-70
2022/06/12 05:41:26;;;;;;;;;12.60;12.00;;;;;;;;4940938;29;9011;-66
2022/06/12 05:43:52;;;;;;;;;12.40;9.00;;;;;;;;4941444;28;9170;-65
2022/06/12 05:46:19;;;;;;;;;9.80;8.80;;;;;;;;4940667;29;8805;-70
2022/06/12 05:48:46;;;;;;;;;10.60;9.40;;;;;;;;4939784;28;9033;-71
2022/06/12 05:51:13;;;;;;;;;9.40;9.00;;;;;;;;4941132;29;8781;-67
2022/06/12 05:53:40;;;;;;;;;10.60;10.20;;;;;;;;4955493;28;8861;-69
2022/06/12 05:56:10;;;;;;;;;10.40;10.20;;;;;;;;4941290;29;8793;-68
2022/06/12 05:58:37;;;;;;;;;12.80;11.40;;;;;;;;4955505;28;8789;-67
2022/06/12 06:01:04;;;;;;;;;14.60;11.80;;;;;;;;4956207;28;8812;-71
2022/06/12 06:03:31;;;;;;;;;15.40;13.20;;;;;;;;4939210;28;8781;-64
2022/06/12 06:05:58;;;;;;;;;11.60;8.40;;;;;;;;4955485;29;8809;-70
2022/06/12 06:08:24;;;;;;;;;8.60;8.40;;;;;;;;4940505;28;8790;-71
2022/06/12 06:10:51;;;;;;;;;10.40;9.80;;;;;;;;4940737;29;9442;-65
2022/06/12 06:13:17;;;;;;;;;11.00;10.20;;;;;;;;4941306;28;8765;-65
2022/06/12 06:15:47;;;;;;;;;11.20;11.00;;;;;;;;4940184;29;9461;-65
2022/06/12 06:18:13;;;;;;;;;11.40;7.80;;;;;;;;4940587;29;8778;-65
2022/06/12 06:20:40;;;;;;;;;13.00;11.00;;;;;;;;4940316;29;8864;-65
2022/06/12 06:23:07;;;;;;;;;12.60;10.40;;;;;;;;4940532;29;8855;-65
2022/06/12 06:25:34;;;;;;;;;12.80;10.40;;;;;;;;4940409;29;9446;-65
2022/06/12 06:28:01;;;;;;;;;10.60;10.20;;;;;;;;4940842;29;8864;-65
2022/06/12 06:30:28;;;;;;;;;12.80;10.20;;;;;;;;4939945;29;8802;-64
2022/06/12 06:32:55;;;;;;;;;15.80;14.00;;;;;;;;4940689;29;8819;-65
2022/06/12 06:35:21;;;;;;;;;8.20;7.80;;;;;;;;4940106;29;9434;-65
2022/06/12 06:37:48;;;;;;;;;11.20;10.80;;;;;;;;4940130;29;8869;-65
2022/06/12 06:40:15;;;;;;;;;12.60;12.00;;;;;;;;4939772;29;8773;-65
2022/06/12 06:42:42;;;;;;;;;13.00;10.60;;;;;;;;4940215;29;8821;-65
2022/06/12 06:47:54;;;;;;;;;14.40;11.20;;;;;;;;4952545;28;8785;-65
2022/06/12 06:50:20;;;;;;;;;11.20;10.40;;;;;;;;4940380;29;8793;-64
2022/06/12 06:52:47;;;;;;;;;10.60;10.00;;;;;;;;4946370;28;8886;-65
2022/06/12 06:55:13;;;;;;;;;11.40;10.40;;;;;;;;4978899;28;8764;-65
2022/06/12 06:57:41;;;;;;;;;9.40;9.00;;;;;;;;4978280;28;8798;-65
2022/06/12 07:00:08;;;;;;;;;10.20;8.60;;;;;;;;4960983;28;8799;-65
2022/06/12 07:02:35;;;;;;;;;16.00;13.60;;;;;;;;4978176;28;8799;-65
2022/06/12 07:05:02;;;;;;;;;11.00;9.80;;;;;;;;4978777;28;9153;-65
2022/06/12 07:07:28;;;;;;;;;13.60;12.20;;;;;;;;4978254;28;8794;-64
2022/06/12 07:09:55;;;;;;;;;12.40;11.20;;;;;;;;4978724;28;8768;-65
2022/06/12 07:12:21;;;;;;;;;10.80;10.00;;;;;;;;4978043;28;8842;-65
2022/06/12 07:14:48;;;;;;;;;11.60;11.20;;;;;;;;4978124;28;8788;-65
2022/06/12 07:17:15;;;;;;;;;12.80;12.80;;;;;;;;4978636;28;8772;-65
2022/06/12 07:19:41;;;;;;;;;12.20;10.00;;;;;;;;4978376;28;8756;-65
2022/06/12 07:22:08;;;;;;;;;13.00;8.80;;;;;;;;4979125;28;8764;-65
2022/06/12 07:24:34;;;;;;;;;7.00;7.00;;;;;;;;4977607;28;8783;-65
2022/06/12 07:27:01;;;;;;;;;17.80;14.00;;;;;;;;4978329;28;8763;-65
2022/06/12 07:29:28;;;;;;;;;13.60;12.00;;;;;;;;4977802;28;8799;-65
2022/06/12 07:31:54;;;;;;;;;18.20;16.20;;;;;;;;4960569;28;8778;-65
2022/06/12 07:34:21;;;;;;;;;18.00;14.20;;;;;;;;4978623;28;8795;-64
2022/06/12 07:36:49;;;;;;;;;15.20;14.00;;;;;;;;4977872;28;8820;-65
2022/06/12 07:39:17;;;;;;;;;14.00;10.60;;;;;;;;4978430;28;8781;-65
2022/06/12 07:41:44;;;;;;;;;13.40;12.80;;;;;;;;4977133;28;8779;-65
2022/06/12 07:44:11;;;;;;;;;14.60;13.00;;;;;;;;4977741;28;8820;-65
2022/06/12 07:46:38;;;;;;;;;13.80;11.20;;;;;;;;4978109;28;9447;-65
2022/06/12 07:49:04;;;;;;;;;11.80;10.80;;;;;;;;4961308;28;8882;-65
2022/06/12 07:51:31;;;;;;;;;14.20;11.80;;;;;;;;4977753;28;8803;-65
2022/06/12 07:53:58;;;;;;;;;12.80;10.00;;;;;;;;4977532;28;8807;-65
2022/06/12 07:56:25;;;;;;;;;9.00;7.00;;;;;;;;4977791;28;8806;-65
2022/06/12 07:58:54;;;;;;;;;13.60;11.40;;;;;;;;4978150;28;8923;-65
2022/06/12 08:01:26;;;;;;;;;14.80;12.40;;;;;;;;4978452;28;8767;-66
2022/06/12 08:03:53;;;;;;;;;14.60;10.60;;;;;;;;4979381;28;8764;-65
2022/06/12 08:06:20;;;;;;;;;18.00;11.40;;;;;;;;4981412;28;8782;-64
2022/06/12 08:08:46;;;;;;;;;16.60;11.60;;;;;;;;4981569;28;9435;-65
2022/06/12 08:11:13;;;;;;;;;17.20;13.20;;;;;;;;4981380;28;8877;-65
2022/06/12 08:13:40;;;;;;;;;14.00;12.20;;;;;;;;4981288;28;8748;-65
2022/06/12 08:16:06;;;;;;;;;13.00;11.60;;;;;;;;4981382;28;9468;-65
2022/06/12 08:18:33;;;;;;;;;13.00;12.60;;;;;;;;4980975;28;8771;-65
2022/06/12 08:21:09;;;;;;;;;15.00;12.40;;;;;;;;4981206;28;8976;-65
2022/06/12 08:23:39;;;;;;;;;8.00;8.00;;;;;;;;4980764;28;8771;-65
2022/06/12 08:26:10;;;;;;;;;11.00;11.00;;;;;;;;4980841;28;9497;-65
2022/06/12 08:28:44;;;;;;;;;11.60;10.00;;;;;;;;4963172;28;8796;-65
2022/06/12 08:31:12;;;;;;;;;11.60;11.60;;;;;;;;4981796;28;8847;-65
2022/06/12 08:33:39;;;;;;;;;11.80;9.40;;;;;;;;4963598;28;8783;-65
2022/06/12 08:36:07;;;;;;;;;8.80;8.00;;;;;;;;4980913;28;8849;-65
2022/06/12 08:38:34;;;;;;;;;9.60;8.00;;;;;;;;4980531;28;9453;-65
2022/06/12 08:41:03;;;;;;;;;11.60;10.20;;;;;;;;4980912;28;9872;-66
2022/06/12 08:43:35;;;;;;;;;4.40;3.20;;;;;;;;4980394;28;8780;-64
2022/06/12 08:46:08;;;;;;;;;6.60;6.40;;;;;;;;4960848;28;8770;-65
2022/06/12 08:48:55;;;;;;;;;7.40;7.00;;;;;;;;4960939;28;8770;-66
2022/06/12 08:51:23;;;;;;;;;9.40;9.40;;;;;;;;4959894;28;8812;-64
2022/06/12 08:54:04;;;;;;;;;5.20;4.40;;;;;;;;4956652;29;9521;-65
2022/06/12 08:56:42;;;;;;;;;10.80;8.80;;;;;;;;4956445;28;8992;-65
2022/06/12 08:59:08;;;;;;;;;8.60;8.00;;;;;;;;4946449;28;8795;-65
2022/06/12 09:01:35;;;;;;;;;8.60;6.80;;;;;;;;4961013;28;8779;-65
2022/06/12 09:04:03;;;;;;;;;6.60;6.60;;;;;;;;4960402;28;8797;-65
2022/06/12 09:06:39;;;;;;;;;8.60;7.80;;;;;;;;4975356;28;8810;-65
2022/06/12 09:09:14;;;;;;;;;7.20;7.20;;;;;;;;4975975;28;8791;-66
2022/06/12 09:11:43;;;;;;;;;9.20;9.20;;;;;;;;4960737;28;8783;-65
2022/06/12 09:14:16;;;;;;;;;9.40;7.00;;;;;;;;4960984;28;8925;-65
2022/06/12 09:16:53;;;;;;;;;8.00;7.00;;;;;;;;4959924;28;8795;-65
2022/06/12 09:19:27;;;;;;;;;8.20;7.80;;;;;;;;4976234;28;8779;-65
2022/06/12 09:22:09;;;;;;;;;6.20;6.20;;;;;;;;4960751;28;9487;-65
2022/06/12 09:24:54;;;;;;;;;6.00;5.60;;;;;;;;4975136;28;9434;-65
2022/06/12 09:27:21;;;;;;;;;10.00;9.00;;;;;;;;4960390;28;8774;-65
2022/06/12 09:29:47;;;;;;;;;9.20;8.40;;;;;;;;4960530;28;8794;-65
2022/06/12 09:32:32;;;;;;;;;6.80;6.80;;;;;;;;4960848;28;8766;-65
2022/06/12 09:35:17;;;;;;;;;5.80;5.00;;;;;;;;4960845;28;8769;-65
2022/06/12 09:40:32;;;;;;;;;4.00;4.00;;;;;;;;4959926;28;9404;-64
2022/06/12 09:43:09;;;;;;;;;5.40;5.00;;;;;;;;4975780;28;8877;-65
2022/06/12 09:45:48;;;;;;;;;5.40;4.60;;;;;;;;4959921;28;8857;-65
2022/06/12 09:48:17;;;;;;;;;5.60;5.00;;;;;;;;4960306;28;8858;-65
2022/06/12 09:50:54;;;;;;;;;7.60;5.00;;;;;;;;4975369;28;8759;-65
2022/06/12 09:53:39;;;;;;;;;6.00;5.00;;;;;;;;4974773;28;8837;-66
2022/06/12 09:56:11;;;;;;;;;7.80;6.80;;;;;;;;4960218;28;8861;-65
2022/06/12 09:58:46;;;;;;;;;8.00;5.00;;;;;;;;4974878;28;8892;-65
2022/06/12 10:01:15;;;;;;;;;5.80;4.80;;;;;;;;4959280;28;8798;-65
2022/06/12 10:03:46;;;;;;;;;6.40;4.80;;;;;;;;4974645;28;8778;-66
2022/06/12 10:06:23;;;;;;;;;8.00;7.40;;;;;;;;4974627;28;8782;-65
2022/06/12 10:08:51;;;;;;;;;9.60;5.60;;;;;;;;4958697;28;8837;-65
2022/06/12 10:11:19;;;;;;;;;6.40;6.00;;;;;;;;4959681;28;9084;-65
2022/06/12 10:13:54;;;;;;;;;7.80;3.40;;;;;;;;4960086;28;8997;-65
2022/06/12 10:16:25;;;;;;;;;6.00;5.40;;;;;;;;4974921;28;8811;-65
2022/06/12 10:19:21;;;;;;;;;8.80;8.40;;;;;;;;4960520;28;8856;-65
2022/06/12 10:21:48;;;;;;;;;8.20;7.00;;;;;;;;4951209;28;8821;-65
2022/06/12 10:24:15;;;;;;;;;5.00;5.00;;;;;;;;4959636;28;8771;-65
2022/06/12 10:26:41;;;;;;;;;8.20;8.20;;;;;;;;4959272;28;8794;-66
2022/06/12 10:29:10;;;;;;;;;13.40;11.20;;;;;;;;4973581;28;8779;-65
2022/06/12 10:31:47;;;;;;;;;13.60;11.20;;;;;;;;4959507;28;8833;-65
2022/06/12 10:34:16;;;;;;;;;9.20;9.00;;;;;;;;4960188;28;10523;-65
2022/06/12 10:36:43;;;;;;;;;6.60;5.40;;;;;;;;4959053;28;8891;-65
2022/06/12 10:39:09;;;;;;;;;10.20;8.20;;;;;;;;4959558;28;8806;-65
2022/06/12 10:41:42;;;;;;;;;9.00;8.00;;;;;;;;4959025;28;8817;-65
2022/06/12 10:44:09;;;;;;;;;6.00;5.00;;;;;;;;4959483;28;8802;-66
2022/06/12 10:46:36;;;;;;;;;5.20;4.40;;;;;;;;4973920;28;8747;-65
2022/06/12 10:49:06;;;;;;;;;4.60;4.00;;;;;;;;4960228;28;9415;-65
2022/06/12 10:51:38;;;;;;;;;6.40;5.40;;;;;;;;4973857;28;8771;-65
2022/06/12 10:54:21;;;;;;;;;9.20;6.20;;;;;;;;4970476;28;8929;-66
2022/06/12 10:56:48;;;;;;;;;10.00;7.60;;;;;;;;4978273;28;9383;-66
2022/06/12 10:59:20;;;;;;;;;8.20;6.60;;;;;;;;4978361;28;8760;-66
2022/06/12 11:02:05;;;;;;;;;7.60;5.40;;;;;;;;4978558;28;8790;-65
2022/06/12 11:04:51;;;;;;;;;6.00;4.80;;;;;;;;4978051;28;8760;-65
2022/06/12 11:07:36;;;;;;;;;8.20;6.60;;;;;;;;4961758;28;8744;-64
2022/06/12 11:10:18;;;;;;;;;3.80;2.60;;;;;;;;4979071;28;8826;-66
2022/06/12 11:12:44;;;;;;;;;8.40;7.00;;;;;;;;4977228;28;8886;-65
2022/06/12 11:15:12;;;;;;;;;13.00;8.60;;;;;;;;4978162;28;8791;-65
2022/06/12 11:17:54;;;;;;;;;5.20;4.20;;;;;;;;4978059;28;8840;-65
2022/06/12 11:20:26;;;;;;;;;10.00;7.20;;;;;;;;4978088;28;8830;-65
2022/06/12 11:23:05;;;;;;;;;8.20;6.20;;;;;;;;4961349;28;8805;-66
2022/06/12 11:25:50;;;;;;;;;9.20;8.80;;;;;;;;4960703;28;8763;-65
2022/06/12 11:28:25;;;;;;;;;8.80;6.60;;;;;;;;4961144;28;8752;-66
2022/06/12 11:30:55;;;;;;;;;12.40;10.00;;;;;;;;4978125;28;8854;-66
2022/06/12 11:33:45;;;;;;;;;12.00;12.00;;;;;;;;4978002;28;8739;-65
2022/06/12 11:36:18;;;;;;;;;18.20;12.00;;;;;;;;4976965;28;8819;-65
2022/06/12 11:39:03;;;;;;;;;13.00;11.00;;;;;;;;4979061;28;8756;-65
2022/06/12 11:41:35;;;;;;;;;10.00;9.00;;;;;;;;4981594;28;8775;-65
2022/06/12 11:44:20;;;;;;;;;12.40;10.40;;;;;;;;4981902;28;8843;-66
2022/06/12 11:46:52;;;;;;;;;14.00;11.60;;;;;;;;4981667;28;8759;-65
2022/06/12 11:49:27;;;;;;;;;16.75;14.00;;;;;;;;4964901;28;8763;-64
2022/06/12 11:52:12;;;;;;;;;18.75;18.75;;;;;;;;4965218;28;8736;-65
2022/06/12 11:54:57;;;;;;;;;18.75;14.00;;;;;;;;4981079;28;8862;-65
2022/06/12 11:57:23;;;;;;;;;12.25;12.00;;;;;;;;4981743;28;8783;-65
2022/06/12 11:59:53;;;;;;;;;16.75;14.00;;;;;;;;4981276;28;8882;-65
2022/06/12 12:02:38;;;;;;;;;15.60;11.40;;;;;;;;4981872;28;8829;-65
2022/06/12 12:05:19;;;;;;;;;22.00;18.40;;;;;;;;4982010;28;8826;-65
2022/06/12 12:07:52;;;;;;;;;26.25;21.75;;;;;;;;4980171;28;8795;-66
2022/06/12 12:10:19;;;;;;;;;27.75;25.00;;;;;;;;4981722;28;8779;-64
2022/06/12 12:12:47;;;;;;;;;31.25;28.50;;;;;;;;4981554;28;8802;-65
2022/06/12 12:15:26;;;;;;;;;24.25;19.00;;;;;;;;4980220;28;8791;-65
2022/06/12 12:17:53;;;;;;;;;21.75;18.25;;;;;;;;4981254;28;8782;-65
2022/06/12 12:20:29;;;;;;;;;25.25;21.25;;;;;;;;4963978;28;8764;-65
2022/06/12 12:23:00;;;;;;;;;24.00;23.33;;;;;;;;4964757;28;8779;-65
2022/06/12 12:25:29;;;;;;;;;31.50;29.75;;;;;;;;4963415;28;9436;-65
2022/06/12 12:27:56;;;;;;;;;36.50;32.75;;;;;;;;4981954;28;8874;-65
2022/06/12 12:30:27;;;;;;;;;36.75;28.50;;;;;;;;4980667;28;8748;-65
2022/06/12 12:32:54;;;;;;;;;26.75;25.50;;;;;;;;4981074;28;9475;-65
2022/06/12 12:43:47;;;;;;;;;19.60;16.80;;;;;;;;4980402;28;8783;-64
2022/06/12 12:46:13;;;;;;;;;20.40;15.40;;;;;;;;4981154;28;8894;-65
2022/06/12 12:48:44;;;;;;;;;18.00;17.00;;;;;;;;4980668;28;8802;-65
2022/06/12 12:51:11;;;;;;;;;20.75;14.75;;;;;;;;4980534;28;8771;-65
2022/06/12 12:53:38;;;;;;;;;16.75;16.50;;;;;;;;4968278;28;8851;-65
2022/06/12 12:56:04;;;;;;;;;17.75;15.00;;;;;;;;4956789;28;9427;-65
2022/06/12 12:58:32;;;;;;;;;17.50;16.75;;;;;;;;4942144;28;8738;-64
2022/06/12 13:01:25;;;;;;;;;25.25;23.50;;;;;;;;4957146;28;8754;-65
2022/06/12 13:03:53;;;;;;;;;23.50;19.75;;;;;;;;4942229;28;8828;-65
2022/06/12 13:06:23;;;;;;;;;24.00;20.75;;;;;;;;4940620;29;8790;-65
2022/06/12 13:09:10;;;;;;;;;25.25;17.75;;;;;;;;4941943;28;8797;-65
2022/06/12 13:11:48;;;;;;;;;17.50;16.25;;;;;;;;4940579;29;8832;-65
2022/06/12 13:14:21;;;;;;;;;25.75;18.50;;;;;;;;4940656;29;8799;-65
2022/06/12 13:17:10;;;;;;;;;21.50;16.25;;;;;;;;4940647;28;8805;-65
2022/06/12 13:19:37;;;;;;;;;17.50;16.00;;;;;;;;4941198;28;8926;-65
2022/06/12 13:22:07;;;;;;;;;19.00;13.25;;;;;;;;4942872;28;8776;-65
2022/06/12 13:24:37;;;;;;;;;13.60;11.80;;;;;;;;4941616;28;8801;-65
2022/06/12 13:27:11;;;;;;;;;15.00;12.60;;;;;;;;4956972;28;8782;-65
2022/06/12 13:29:42;;;;;;;;;16.50;13.25;;;;;;;;4942008;28;8848;-65
2022/06/12 13:32:11;;;;;;;;;15.60;12.00;;;;;;;;4942037;28;8793;-65
2022/06/12 13:34:37;;;;;;;;;12.00;12.00;;;;;;;;4956157;28;8975;-65
2022/06/12 13:37:05;;;;;;;;;13.60;11.40;;;;;;;;4942287;28;8813;-65
2022/06/12 13:39:33;;;;;;;;;8.80;8.20;;;;;;;;4955898;28;8968;-65
2022/06/12 13:42:01;;;;;;;;;13.00;10.00;;;;;;;;4941497;28;8900;-66
2022/06/12 13:44:31;;;;;;;;;10.60;9.00;;;;;;;;4941273;28;8820;-65
2022/06/12 13:46:58;;;;;;;;;8.80;5.20;;;;;;;;4941727;28;8848;-65
2022/06/12 13:49:30;;;;;;;;;12.20;10.00;;;;;;;;4956203;28;8878;-64
2022/06/12 13:51:58;;;;;;;;;14.00;10.40;;;;;;;;4942394;28;8767;-66
2022/06/12 13:54:27;;;;;;;;;13.00;10.60;;;;;;;;4955624;28;8801;-65
2022/06/12 13:56:56;;;;;;;;;13.40;10.80;;;;;;;;4956109;28;8833;-65
2022/06/12 13:59:23;;;;;;;;;11.20;8.20;;;;;;;;4940926;28;8774;-65
2022/06/12 14:01:50;;;;;;;;;12.20;9.80;;;;;;;;4934470;28;8802;-66
2022/06/12 14:04:24;;;;;;;;;12.00;8.60;;;;;;;;4940334;29;8784;-62
2022/06/12 14:06:51;;;;;;;;;9.60;8.20;;;;;;;;4941371;28;8828;-65
2022/06/12 14:09:19;;;;;;;;;12.00;10.00;;;;;;;;4940793;28;8781;-65
2022/06/12 14:11:45;;;;;;;;;10.60;7.60;;;;;;;;4941113;28;8778;-65
2022/06/12 14:14:30;;;;;;;;;9.40;7.00;;;;;;;;4953986;28;8813;-65
2022/06/12 14:16:58;;;;;;;;;8.80;8.20;;;;;;;;4940890;28;8778;-65
2022/06/12 14:19:28;;;;;;;;;8.60;7.20;;;;;;;;4940711;28;8774;-63
2022/06/12 14:21:59;;;;;;;;;8.80;8.80;;;;;;;;4941334;28;8793;-65
2022/06/12 14:24:27;;;;;;;;;5.20;5.20;;;;;;;;4940509;28;8786;-65
2022/06/12 14:26:54;;;;;;;;;7.00;6.00;;;;;;;;4954954;28;8793;-65
2022/06/12 14:29:33;;;;;;;;;7.20;4.80;;;;;;;;4940092;28;8872;-65
2022/06/12 14:32:12;;;;;;;;;10.20;7.00;;;;;;;;4940381;28;8773;-65
2022/06/12 14:34:39;;;;;;;;;5.60;5.60;;;;;;;;4940543;28;8836;-65
2022/06/12 14:37:06;;;;;;;;;9.40;6.00;;;;;;;;4940943;29;8840;-65
2022/06/12 14:39:36;;;;;;;;;10.80;6.00;;;;;;;;4940066;28;8820;-65
2022/06/12 14:42:10;;;;;;;;;6.60;5.80;;;;;;;;4940581;28;8793;-65
2022/06/12 14:44:37;;;;;;;;;13.80;6.80;;;;;;;;4939888;28;8837;-65
2022/06/12 14:47:34;;;;;;;;;7.60;5.40;;;;;;;;4955157;28;8774;-65
2022/06/12 14:50:00;;;;;;;;;7.00;5.00;;;;;;;;4938816;29;8798;-66
2022/06/12 14:52:28;;;;;;;;;6.40;6.20;;;;;;;;4939971;28;13961;-65
2022/06/12 14:54:55;;;;;;;;;4.60;4.20;;;;;;;;4975530;28;8800;-65
2022/06/12 14:57:22;;;;;;;;;7.00;5.60;;;;;;;;4978277;28;9006;-65
2022/06/12 14:59:51;;;;;;;;;6.40;4.00;;;;;;;;4978833;28;8795;-66
2022/06/12 15:02:19;;;;;;;;;6.60;5.00;;;;;;;;4978476;28;8781;-64
2022/06/12 15:04:46;;;;;;;;;3.40;3.40;;;;;;;;4961372;28;8840;-65
2022/06/12 15:07:12;;;;;;;;;5.40;5.00;;;;;;;;4979165;28;8791;-66
2022/06/12 15:09:39;;;;;;;;;4.20;1.20;;;;;;;;4978174;28;8809;-65
2022/06/12 15:12:06;;;;;;;;;2.80;2.80;;;;;;;;4961273;28;8779;-65
2022/06/12 15:14:33;;;;;;;;;3.40;3.40;;;;;;;;4959810;28;8814;-66
2022/06/12 15:17:00;;;;;;;;;13.00;12.00;;;;;;;;4978352;28;8775;-65
2022/06/12 15:19:26;;;;;;;;;13.00;13.00;;;;;;;;4978298;28;8759;-65
2022/06/12 15:21:53;;;;;;;;;14.00;11.80;;;;;;;;4979212;28;8779;-66